Detroit, Illinois
Current Conditions -  °F | °C
As of 6:55 PM on Friday 24 Oct 2014 (Local Time) from KPPQ Reporting Station
Clear Clear  
Wind Chill: 64°   Ceiling: Unl
Heat Index: 64°   Visibility: 10mi
Dew Point: 52°   Wind: 5mph
Humidity: 63%   Direction: 180°S
Pressure: 29.98"   Gusts: NA
Location:  39.5728°N, 90.8034°W
Report Text: KPPQ 242355Z AUTO 18004KT 10SM CLR 18/11 A2998 RMK AO2 T01800109 10225 20180
Loading
Personal Weather Stations






























Interactive Weather Map
Tropical Storm Tracking
New forecast layout! Learn more

10-Day Weather Forecast

Advertisements
Track Severe Weather on mobile